createdAt,value
2024-05-09T00:01:55.517Z,1.30
2024-05-09T00:03:57.218Z,1.00
2024-05-09T00:05:58.906Z,1.35
2024-05-09T00:08:00.520Z,1.20
2024-05-09T00:10:03.194Z,1.25
2024-05-09T00:12:07.212Z,1.20
2024-05-09T00:14:08.900Z,1.20
2024-05-09T00:16:10.482Z,1.30
2024-05-09T00:18:12.248Z,1.30
2024-05-09T00:20:20.334Z,1.20
2024-05-09T00:22:26.067Z,1.20
2024-05-09T00:24:27.638Z,1.05
2024-05-09T00:26:29.354Z,1.10
2024-05-09T00:28:31.094Z,1.08
2024-05-09T00:30:35.773Z,0.90
2024-05-09T00:32:38.897Z,1.10
2024-05-09T00:34:40.617Z,0.90
2024-05-09T00:36:42.197Z,1.00
2024-05-09T00:38:45.490Z,0.90
2024-05-09T00:40:47.100Z,0.98
2024-05-09T00:42:48.872Z,1.05
2024-05-09T00:44:50.448Z,1.00
2024-05-09T00:46:54.841Z,0.98
2024-05-09T00:48:56.800Z,0.93
2024-05-09T00:50:58.884Z,0.80
2024-05-09T00:53:00.583Z,1.02
2024-05-09T00:55:02.323Z,0.95
2024-05-09T00:57:07.246Z,0.77
2024-05-09T00:59:08.956Z,0.85
2024-05-09T01:01:10.892Z,0.80
2024-05-09T01:03:14.091Z,0.90
2024-05-09T01:05:16.543Z,0.80
2024-05-09T01:07:18.368Z,0.80
2024-05-09T01:09:20.089Z,0.70
2024-05-09T01:11:21.873Z,1.00
2024-05-09T01:13:23.481Z,0.88
2024-05-09T01:15:25.070Z,0.90
2024-05-09T01:17:27.300Z,0.80
2024-05-09T01:19:30.206Z,0.75
2024-05-09T01:21:31.893Z,0.77
2024-05-09T01:23:33.805Z,0.80
2024-05-09T01:25:35.876Z,0.63
2024-05-09T01:27:37.640Z,0.68
2024-05-09T01:29:39.270Z,0.70
2024-05-09T01:31:40.919Z,0.70
2024-05-09T01:33:43.462Z,0.70
2024-05-09T01:35:45.482Z,0.63
2024-05-09T01:37:47.190Z,0.80
2024-05-09T01:39:48.760Z,0.63
2024-05-09T01:41:50.414Z,0.70
2024-05-09T01:43:52.040Z,0.80
2024-05-09T01:45:55.344Z,0.60
2024-05-09T01:47:57.266Z,0.80
2024-05-09T01:49:59.058Z,0.55
2024-05-09T01:52:00.685Z,0.70
2024-05-09T01:54:02.477Z,0.75
2024-05-09T01:56:04.248Z,0.70
2024-05-09T01:58:06.105Z,0.55
2024-05-09T02:00:10.173Z,0.73
2024-05-09T02:02:12.408Z,0.57
2024-05-09T02:04:14.327Z,0.55
2024-05-09T02:06:16.095Z,0.65
2024-05-09T02:08:19.475Z,0.70
2024-05-09T02:10:26.485Z,0.50
2024-05-09T02:12:33.893Z,0.63
2024-05-09T02:14:35.587Z,0.70
2024-05-09T02:16:37.366Z,0.55
2024-05-09T02:18:39.067Z,0.60
2024-05-09T02:20:41.969Z,0.60
2024-05-09T02:22:44.251Z,0.60
2024-05-09T02:24:45.927Z,0.50
2024-05-09T02:26:47.554Z,0.60
2024-05-09T02:28:49.208Z,0.50
2024-05-09T02:30:50.893Z,0.60
2024-05-09T02:32:52.575Z,0.57
2024-05-09T02:34:54.262Z,0.70
2024-05-09T02:36:56.258Z,0.63
2024-05-09T02:38:57.882Z,0.60
2024-05-09T02:40:59.727Z,0.55
2024-05-09T02:43:01.563Z,0.50
2024-05-09T02:45:03.292Z,0.60
2024-05-09T02:47:05.007Z,0.50
2024-05-09T02:49:06.659Z,0.60
2024-05-09T02:51:08.451Z,0.60
2024-05-09T02:53:11.095Z,0.47
2024-05-09T02:55:12.799Z,0.40
2024-05-09T02:57:14.406Z,0.60
2024-05-09T02:59:16.084Z,0.50
2024-05-09T03:01:18.148Z,0.50
2024-05-09T03:03:19.982Z,0.47
2024-05-09T03:05:21.749Z,0.50
2024-05-09T03:07:23.432Z,0.70
2024-05-09T03:09:25.029Z,0.60
2024-05-09T03:11:26.843Z,0.55
2024-05-09T03:13:28.495Z,0.50
2024-05-09T03:15:33.105Z,0.50
2024-05-09T03:17:35.155Z,0.60
2024-05-09T03:19:36.995Z,0.57
2024-05-09T03:21:39.986Z,0.50
2024-05-09T03:23:42.133Z,0.55
2024-05-09T03:25:43.906Z,0.60
2024-05-09T03:27:45.592Z,0.60
2024-05-09T03:29:47.137Z,0.60
2024-05-09T03:31:48.959Z,0.60
2024-05-09T03:33:51.411Z,0.50
2024-05-09T03:35:53.126Z,0.60
2024-05-09T03:37:54.830Z,0.50
2024-05-09T03:39:56.489Z,0.50
2024-05-09T03:41:58.195Z,0.60
2024-05-09T03:43:59.866Z,0.43
2024-05-09T03:46:01.509Z,0.50
2024-05-09T03:48:03.266Z,0.57
2024-05-09T03:50:05.854Z,0.50
2024-05-09T03:52:07.693Z,0.47
2024-05-09T03:54:09.757Z,0.50
2024-05-09T03:56:11.393Z,0.50
2024-05-09T03:58:14.481Z,0.50
2024-05-09T04:00:22.160Z,0.52
2024-05-09T04:02:28.442Z,0.60
2024-05-09T04:04:30.255Z,0.40
2024-05-09T04:06:31.905Z,0.50
2024-05-09T04:08:34.301Z,0.60
2024-05-09T04:10:36.102Z,0.50
2024-05-09T04:12:38.915Z,0.40
2024-05-09T04:14:42.889Z,0.50
2024-05-09T04:16:44.716Z,0.50
2024-05-09T04:18:46.442Z,0.57
2024-05-09T04:20:48.158Z,0.50
2024-05-09T04:22:49.780Z,0.47
2024-05-09T04:24:52.856Z,0.60
2024-05-09T04:26:54.464Z,0.50
2024-05-09T04:28:56.065Z,0.50
2024-05-09T04:30:57.720Z,0.57
2024-05-09T04:32:59.426Z,0.40
2024-05-09T04:35:01.381Z,0.47
2024-05-09T04:37:07.099Z,0.50
2024-05-09T04:39:09.034Z,0.50
2024-05-09T04:41:10.696Z,0.50
2024-05-09T04:43:16.268Z,0.55
2024-05-09T04:45:18.213Z,0.55
2024-05-09T04:47:20.976Z,0.60
2024-05-09T04:49:22.700Z,0.60
2024-05-09T04:51:24.482Z,0.47
2024-05-09T04:53:26.075Z,0.50
2024-05-09T04:55:27.857Z,0.52
2024-05-09T04:57:29.488Z,0.50
2024-05-09T04:59:31.251Z,0.40
2024-05-09T05:01:32.996Z,0.40
2024-05-09T05:03:34.802Z,0.50
2024-05-09T05:05:42.661Z,0.50
2024-05-09T05:07:44.552Z,0.47
2024-05-09T05:09:46.151Z,0.60
2024-05-09T05:11:47.884Z,0.43
2024-05-09T05:13:49.746Z,0.43
2024-05-09T05:15:53.123Z,0.50
2024-05-09T05:17:55.187Z,0.50
2024-05-09T05:19:57.698Z,0.60
2024-05-09T05:21:59.399Z,0.50
2024-05-09T05:24:00.976Z,0.60
2024-05-09T05:26:02.881Z,0.55
2024-05-09T05:28:04.796Z,0.60
2024-05-09T05:30:11.877Z,0.57
2024-05-09T05:32:16.692Z,0.67
2024-05-09T05:34:18.543Z,0.50
2024-05-09T05:36:20.103Z,0.52
2024-05-09T05:38:25.045Z,0.47
2024-05-09T05:40:36.197Z,0.52
2024-05-09T05:42:39.663Z,0.60
2024-05-09T05:44:41.280Z,0.50
2024-05-09T05:46:42.916Z,0.50
2024-05-09T05:48:44.684Z,0.60
2024-05-09T05:50:46.624Z,0.75
2024-05-09T05:52:48.393Z,0.70
2024-05-09T05:54:51.707Z,0.70
2024-05-09T05:56:53.234Z,0.60
2024-05-09T05:58:54.849Z,0.60
2024-05-09T06:00:56.573Z,0.80
2024-05-09T06:02:58.415Z,0.60
2024-05-09T06:05:00.142Z,0.68
2024-05-09T06:07:01.805Z,0.70
2024-05-09T06:09:03.413Z,0.80
2024-05-09T06:11:05.141Z,0.70
2024-05-09T06:13:07.397Z,0.73
2024-05-09T06:15:09.120Z,0.75
2024-05-09T06:17:10.836Z,0.90
2024-05-09T06:19:12.525Z,0.73
2024-05-09T06:21:16.595Z,0.90
2024-05-09T06:23:18.705Z,0.70
2024-05-09T06:25:20.619Z,0.80
2024-05-09T06:27:22.230Z,0.73
2024-05-09T06:29:23.979Z,0.90
2024-05-09T06:31:25.561Z,0.65
2024-05-09T06:33:27.434Z,0.77
2024-05-09T06:35:29.269Z,0.90
2024-05-09T06:37:30.968Z,0.60
2024-05-09T06:39:32.726Z,0.90
2024-05-09T06:41:34.419Z,0.73
2024-05-09T06:43:37.208Z,0.75
2024-05-09T06:45:39.775Z,0.68
2024-05-09T06:47:41.727Z,0.75
2024-05-09T06:49:43.560Z,0.80
2024-05-09T06:51:45.146Z,0.80
2024-05-09T06:53:47.025Z,1.00
2024-05-09T06:55:48.746Z,0.70
2024-05-09T06:57:50.442Z,0.70
2024-05-09T06:59:52.418Z,0.70
2024-05-09T07:01:54.073Z,1.00
2024-05-09T07:03:55.907Z,0.60
2024-05-09T07:05:57.620Z,0.80
2024-05-09T07:07:59.322Z,0.90
2024-05-09T07:10:00.923Z,0.90
2024-05-09T07:12:03.648Z,0.90
2024-05-09T07:14:05.526Z,0.82
2024-05-09T07:16:07.212Z,0.88
2024-05-09T07:18:10.430Z,0.73
2024-05-09T07:20:19.866Z,0.80
2024-05-09T07:22:29.547Z,0.95
2024-05-09T07:24:31.158Z,0.82
2024-05-09T07:26:32.928Z,0.90
2024-05-09T07:28:34.639Z,0.90
2024-05-09T07:30:36.211Z,0.80
2024-05-09T07:32:38.004Z,0.73
2024-05-09T07:34:39.782Z,0.90
2024-05-09T07:36:41.354Z,0.80
2024-05-09T07:38:42.967Z,0.80
2024-05-09T07:40:44.682Z,0.90
2024-05-09T07:42:46.419Z,0.90
2024-05-09T07:44:47.983Z,0.70
2024-05-09T07:47:48.834Z,0.93
2024-05-09T07:50:55.139Z,0.90
2024-05-09T07:53:08.834Z,0.82
2024-05-09T07:53:57.113Z,0.73
2024-05-09T07:56:01.532Z,0.70
2024-05-09T07:58:03.483Z,0.80
2024-05-09T08:00:06.542Z,0.95
2024-05-09T08:02:08.972Z,0.93
2024-05-09T08:04:10.795Z,0.90
2024-05-09T08:06:12.943Z,0.90
2024-05-09T08:08:14.533Z,0.90
2024-05-09T08:10:21.949Z,1.00
2024-05-09T08:12:26.677Z,1.00
2024-05-09T08:14:28.429Z,1.00
2024-05-09T08:16:30.332Z,1.00
2024-05-09T08:18:32.151Z,0.98
2024-05-09T08:20:35.426Z,1.00
2024-05-09T08:22:37.327Z,0.90
2024-05-09T08:24:38.994Z,0.93
2024-05-09T08:26:40.576Z,1.00
2024-05-09T08:28:42.158Z,0.90
2024-05-09T08:30:44.194Z,1.00
2024-05-09T08:32:48.146Z,0.80
2024-05-09T08:34:49.902Z,1.00
2024-05-09T08:36:51.610Z,0.93
2024-05-09T08:38:53.213Z,1.05
2024-05-09T08:40:55.514Z,0.80
2024-05-09T08:42:57.754Z,1.08
2024-05-09T08:44:59.520Z,0.90
2024-05-09T08:47:01.117Z,0.90
2024-05-09T08:49:03.418Z,0.80
2024-05-09T08:51:05.706Z,0.85
2024-05-09T08:53:08.150Z,1.00
2024-05-09T08:55:10.084Z,1.00
2024-05-09T08:57:12.842Z,1.10
2024-05-09T08:59:17.365Z,0.80
2024-05-09T09:01:19.854Z,0.80
2024-05-09T09:03:24.465Z,1.08
2024-05-09T09:05:30.281Z,1.10
2024-05-09T09:07:33.496Z,1.10
2024-05-09T09:09:40.754Z,0.90
2024-05-09T09:11:42.439Z,0.85
2024-05-09T09:13:44.161Z,0.90
2024-05-09T09:15:57.340Z,0.93
2024-05-09T09:17:59.992Z,1.08
2024-05-09T09:20:02.378Z,1.10
2024-05-09T09:22:04.270Z,1.10
2024-05-09T09:24:09.859Z,1.08
2024-05-09T09:26:15.611Z,1.02
2024-05-09T09:28:17.357Z,1.13
2024-05-09T09:30:31.521Z,0.90
2024-05-09T09:32:38.368Z,0.90
2024-05-09T09:34:41.465Z,1.00
2024-05-09T09:36:43.636Z,1.15
2024-05-09T09:38:46.532Z,1.05
2024-05-09T09:40:49.833Z,1.10
2024-05-09T09:42:54.422Z,0.93
2024-05-09T09:45:04.293Z,1.00
2024-05-09T09:47:08.462Z,1.13
2024-05-09T09:49:10.325Z,1.08
2024-05-09T09:51:13.321Z,1.10
2024-05-09T09:53:16.015Z,1.00
2024-05-09T09:55:18.150Z,0.90
2024-05-09T09:57:20.295Z,1.10
2024-05-09T09:59:22.548Z,1.10
2024-05-09T10:01:24.281Z,0.95
2024-05-09T10:03:26.165Z,1.10
2024-05-09T10:05:28.450Z,1.00
2024-05-09T10:07:30.926Z,1.00
2024-05-09T10:09:32.634Z,1.00
2024-05-09T10:11:41.826Z,1.10
2024-05-09T10:13:47.438Z,0.98
2024-05-09T10:15:53.197Z,1.00
2024-05-09T10:18:04.343Z,0.90
2024-05-09T10:22:27.629Z,1.00
2024-05-09T10:24:44.968Z,1.00
2024-05-09T10:26:51.424Z,1.00
2024-05-09T10:28:53.163Z,0.98
2024-05-09T10:31:07.378Z,0.90
2024-05-09T10:33:10.935Z,1.00
2024-05-09T10:35:12.992Z,1.17
2024-05-09T10:37:14.734Z,1.00
2024-05-09T10:39:19.030Z,1.00
2024-05-09T10:41:21.374Z,0.90
2024-05-09T10:43:23.187Z,0.95
2024-05-09T10:45:25.019Z,1.10
2024-05-09T10:47:26.843Z,1.02
2024-05-09T10:49:28.810Z,1.00
2024-05-09T10:51:30.903Z,0.95
2024-05-09T10:53:39.708Z,1.10
2024-05-09T10:55:41.294Z,1.10
2024-05-09T10:57:43.507Z,1.08
2024-05-09T10:59:46.041Z,1.00
2024-05-09T11:01:47.748Z,1.27
2024-05-09T11:03:50.032Z,1.02
2024-05-09T11:05:52.312Z,1.10
2024-05-09T11:07:54.891Z,1.20
2024-05-09T11:09:56.654Z,1.10
2024-05-09T11:11:58.647Z,1.15
2024-05-09T11:14:00.484Z,1.40
2024-05-09T11:16:02.725Z,1.10
2024-05-09T11:18:04.637Z,1.10
2024-05-09T11:20:13.609Z,1.30
2024-05-09T11:22:18.880Z,1.10
2024-05-09T11:24:20.514Z,1.10
2024-05-09T11:26:22.676Z,1.10
2024-05-09T11:28:26.148Z,1.30
2024-05-09T11:30:32.017Z,0.98
2024-05-09T11:32:37.540Z,1.30
2024-05-09T11:34:39.503Z,1.17
2024-05-09T11:36:41.513Z,1.20
2024-05-09T11:38:43.345Z,1.30
2024-05-09T11:40:45.119Z,1.40
2024-05-09T11:42:48.782Z,1.20
2024-05-09T11:44:51.736Z,1.15
2024-05-09T11:46:53.805Z,1.20
2024-05-09T11:48:55.763Z,1.10
2024-05-09T11:50:57.578Z,1.20
2024-05-09T11:52:59.187Z,1.20
2024-05-09T11:55:02.802Z,1.00
2024-05-09T11:57:06.003Z,1.00
2024-05-09T11:59:07.583Z,1.20
2024-05-09T12:01:09.454Z,1.00
2024-05-09T12:03:11.135Z,1.08
2024-05-09T12:05:13.636Z,1.08
2024-05-09T12:07:15.871Z,1.00
2024-05-09T12:09:17.614Z,1.20
2024-05-09T12:11:19.243Z,1.10
2024-05-09T12:13:20.976Z,1.33
2024-05-09T12:15:22.719Z,1.10
2024-05-09T12:17:24.411Z,1.20
2024-05-09T12:19:26.102Z,1.20
2024-05-09T12:21:27.733Z,1.38
2024-05-09T12:23:29.367Z,1.10
2024-05-09T12:25:31.099Z,1.10
2024-05-09T12:27:33.010Z,1.20
2024-05-09T12:29:37.561Z,0.90
2024-05-09T12:31:40.257Z,0.98
2024-05-09T12:33:42.095Z,1.20
2024-05-09T12:35:46.525Z,1.38
2024-05-09T12:37:49.890Z,1.33
2024-05-09T12:39:51.505Z,1.13
2024-05-09T12:41:53.111Z,1.08
2024-05-09T12:43:54.738Z,1.20
2024-05-09T12:45:56.412Z,1.15
2024-05-09T12:47:58.296Z,0.90
2024-05-09T12:50:00.203Z,1.23
2024-05-09T12:52:02.144Z,1.10
2024-05-09T12:54:04.401Z,1.00
2024-05-09T12:56:08.806Z,1.10
2024-05-09T12:58:11.346Z,1.25
2024-05-09T13:00:23.258Z,1.15
2024-05-09T13:02:29.505Z,1.10
2024-05-09T13:04:31.270Z,0.90
2024-05-09T13:06:33.095Z,1.20
2024-05-09T13:08:35.039Z,1.20
2024-05-09T13:10:36.895Z,1.00
2024-05-09T13:12:38.823Z,1.00
2024-05-09T13:14:40.490Z,1.00
2024-05-09T13:16:42.296Z,1.20
2024-05-09T13:18:44.309Z,1.17
2024-05-09T13:20:45.979Z,0.90
2024-05-09T13:22:48.571Z,1.10
2024-05-09T13:24:51.623Z,0.93
2024-05-09T13:26:53.283Z,1.20
2024-05-09T13:28:54.852Z,1.17
2024-05-09T13:30:56.689Z,1.20
2024-05-09T13:32:58.483Z,1.02
2024-05-09T13:35:00.403Z,1.27
2024-05-09T13:37:02.153Z,0.90
2024-05-09T13:39:03.922Z,0.98
2024-05-09T13:41:05.585Z,1.00
2024-05-09T13:43:07.306Z,0.90
2024-05-09T13:45:08.978Z,1.05
2024-05-09T13:47:10.683Z,0.90
2024-05-09T13:49:16.710Z,0.90
2024-05-09T13:51:18.787Z,0.88
2024-05-09T13:53:20.338Z,1.08
2024-05-09T13:55:21.940Z,1.05
2024-05-09T13:57:23.590Z,1.20
2024-05-09T13:59:25.178Z,1.00
2024-05-09T14:01:26.886Z,0.75
2024-05-09T14:03:32.153Z,0.80
2024-05-09T14:05:34.115Z,0.85
2024-05-09T14:07:36.072Z,0.90
2024-05-09T14:09:37.759Z,0.95
2024-05-09T14:11:39.692Z,0.82
2024-05-09T14:13:41.405Z,0.90
2024-05-09T14:15:43.093Z,0.93
2024-05-09T14:17:44.992Z,1.08
2024-05-09T14:19:46.589Z,0.90
2024-05-09T14:21:48.453Z,0.90
2024-05-09T14:23:50.148Z,0.90
2024-05-09T14:25:54.560Z,0.88
2024-05-09T14:27:57.656Z,1.00
2024-05-09T14:29:59.401Z,0.80
2024-05-09T14:32:02.483Z,0.90
2024-05-09T14:34:04.620Z,1.17
2024-05-09T14:36:06.500Z,0.80
2024-05-09T14:38:08.778Z,0.85
2024-05-09T14:40:25.947Z,0.90
2024-05-09T14:42:32.794Z,0.90
2024-05-09T14:44:37.527Z,0.70
2024-05-09T14:46:39.439Z,0.85
2024-05-09T14:48:41.225Z,0.80
2024-05-09T14:50:42.873Z,0.90
2024-05-09T14:52:44.577Z,0.80
2024-05-09T14:54:46.794Z,0.80
2024-05-09T14:56:50.943Z,0.90
2024-05-09T14:58:52.582Z,0.80
2024-05-09T15:00:54.598Z,0.85
2024-05-09T15:02:56.342Z,0.80
2024-05-09T15:04:58.433Z,0.85
2024-05-09T15:07:00.189Z,0.80
2024-05-09T15:09:01.930Z,0.70
2024-05-09T15:11:03.705Z,0.80
2024-05-09T15:13:07.903Z,0.70
2024-05-09T15:15:11.555Z,0.70
2024-05-09T15:17:13.426Z,0.90
2024-05-09T15:19:15.216Z,0.77
2024-05-09T15:21:16.898Z,0.73
2024-05-09T15:23:18.470Z,0.70
2024-05-09T15:25:20.107Z,0.80
2024-05-09T15:27:21.749Z,0.70
2024-05-09T15:29:23.422Z,0.80
2024-05-09T15:31:25.143Z,0.70
2024-05-09T15:33:27.947Z,0.65
2024-05-09T15:35:29.564Z,0.70
2024-05-09T15:37:31.511Z,0.63
2024-05-09T15:39:33.191Z,0.70
2024-05-09T15:41:34.974Z,0.68
2024-05-09T15:43:36.619Z,0.70
2024-05-09T15:45:38.843Z,0.70
2024-05-09T15:47:40.957Z,0.60
2024-05-09T15:49:42.775Z,0.70
2024-05-09T15:51:44.683Z,0.65
2024-05-09T15:53:46.312Z,0.75
2024-05-09T15:55:47.929Z,0.80
2024-05-09T15:57:49.565Z,0.77
2024-05-09T15:59:51.183Z,0.70
2024-05-09T16:01:52.934Z,0.80
2024-05-09T16:03:54.687Z,0.73
2024-05-09T16:05:58.446Z,0.60
2024-05-09T16:08:00.264Z,0.70
2024-05-09T16:10:02.002Z,0.68
2024-05-09T16:12:03.782Z,0.70
2024-05-09T16:14:05.356Z,0.70
2024-05-09T16:16:07.398Z,0.70
2024-05-09T16:18:09.126Z,0.80
2024-05-09T16:20:14.994Z,0.77
2024-05-09T16:22:19.919Z,0.70
2024-05-09T16:24:21.544Z,0.50
2024-05-09T16:26:23.100Z,0.85
2024-05-09T16:28:26.930Z,0.80
2024-05-09T16:30:34.634Z,0.80
2024-05-09T16:32:40.771Z,0.80
2024-05-09T16:34:42.583Z,0.88
2024-05-09T16:36:44.251Z,0.80
2024-05-09T16:38:45.861Z,0.60
2024-05-09T16:40:47.932Z,0.60
2024-05-09T16:42:49.613Z,0.80
2024-05-09T16:44:51.185Z,0.75
2024-05-09T16:46:52.957Z,0.80
2024-05-09T16:48:54.915Z,0.70
2024-05-09T16:50:56.897Z,0.70
2024-05-09T16:52:58.642Z,0.80
2024-05-09T16:55:00.410Z,0.80
2024-05-09T16:57:02.353Z,0.95
2024-05-09T16:59:04.055Z,0.73
2024-05-09T17:01:05.842Z,0.70
2024-05-09T17:03:08.704Z,0.80
2024-05-09T17:05:10.820Z,0.77
2024-05-09T17:07:12.622Z,0.68
2024-05-09T17:09:15.743Z,0.80
2024-05-09T17:11:19.842Z,0.65
2024-05-09T17:13:22.754Z,0.80
2024-05-09T17:15:24.503Z,0.80
2024-05-09T17:17:26.238Z,0.70
2024-05-09T17:19:28.063Z,0.80
2024-05-09T17:21:29.704Z,0.70
2024-05-09T17:23:34.343Z,0.75
2024-05-09T17:25:36.656Z,0.90
2024-05-09T17:27:38.275Z,0.70
2024-05-09T17:29:40.121Z,0.82
2024-05-09T17:31:42.741Z,0.70
2024-05-09T17:33:44.547Z,0.80
2024-05-09T17:35:50.320Z,0.80
2024-05-09T17:37:52.159Z,0.68
2024-05-09T17:39:57.201Z,0.80
2024-05-09T17:41:58.859Z,0.70
2024-05-09T17:44:00.469Z,0.82
2024-05-09T17:46:02.234Z,0.80
2024-05-09T17:48:03.959Z,0.70
2024-05-09T17:50:11.732Z,0.80
2024-05-09T17:52:18.914Z,0.90
2024-05-09T17:54:20.934Z,0.77
2024-05-09T17:56:22.628Z,0.90
2024-05-09T17:58:24.516Z,0.88
2024-05-09T18:02:33.224Z,0.75
2024-05-09T18:04:35.220Z,0.73
2024-05-09T18:06:36.951Z,0.75
2024-05-09T18:08:38.661Z,0.82
2024-05-09T18:10:41.438Z,0.70
2024-05-09T18:12:43.654Z,0.80
2024-05-09T18:14:45.240Z,0.90
2024-05-09T18:16:46.891Z,0.70
2024-05-09T18:18:48.659Z,0.80
2024-05-09T18:20:50.363Z,0.80
2024-05-09T18:22:52.125Z,0.65
2024-05-09T18:24:53.742Z,0.73
2024-05-09T18:26:55.340Z,0.73
2024-05-09T18:28:57.009Z,0.60
2024-05-09T18:30:58.619Z,0.93
2024-05-09T18:33:00.672Z,0.80
2024-05-09T18:35:02.562Z,0.70
2024-05-09T18:37:04.724Z,0.90
2024-05-09T18:39:06.786Z,0.80
2024-05-09T18:41:08.391Z,0.70
2024-05-09T18:43:10.620Z,0.80
2024-05-09T18:45:13.122Z,0.70
2024-05-09T18:47:16.804Z,0.77
2024-05-09T18:49:20.235Z,0.80
2024-05-09T18:51:22.276Z,0.70
2024-05-09T18:53:23.946Z,0.80
2024-05-09T18:55:25.643Z,0.90
2024-05-09T18:57:27.431Z,0.90
2024-05-09T18:59:29.105Z,0.85
2024-05-09T19:01:31.181Z,0.90
2024-05-09T19:03:33.292Z,0.73
2024-05-09T19:05:36.085Z,0.90
2024-05-09T19:07:38.027Z,0.90
2024-05-09T19:09:39.672Z,0.90
2024-05-09T19:11:41.511Z,0.80
2024-05-09T19:13:43.312Z,0.80
2024-05-09T19:15:45.271Z,0.80
2024-05-09T19:17:48.210Z,0.70
2024-05-09T19:19:52.632Z,0.80
2024-05-09T19:21:57.324Z,0.80
2024-05-09T19:23:58.954Z,0.90
2024-05-09T19:26:00.691Z,0.80
2024-05-09T19:28:02.942Z,0.70
2024-05-09T19:30:09.581Z,0.70
2024-05-09T19:32:16.173Z,0.80
2024-05-09T19:34:18.122Z,0.80
2024-05-09T19:36:19.796Z,0.70
2024-05-09T19:38:21.373Z,0.80
2024-05-09T19:40:29.042Z,0.70
2024-05-09T19:44:35.459Z,0.60
2024-05-09T19:46:37.322Z,0.57
2024-05-09T19:48:39.250Z,0.80
2024-05-09T19:50:44.515Z,0.90
2024-05-09T19:52:46.732Z,0.90
2024-05-09T19:54:50.022Z,0.70
2024-05-09T19:56:51.896Z,0.90
2024-05-09T19:58:55.099Z,0.82
2024-05-09T20:00:56.784Z,0.80
2024-05-09T20:02:58.503Z,0.80
2024-05-09T20:05:02.306Z,0.70
2024-05-09T20:07:04.429Z,0.80
2024-05-09T20:09:06.218Z,0.90
2024-05-09T20:11:07.865Z,0.70
2024-05-09T20:13:09.645Z,0.77
2024-05-09T20:15:11.237Z,0.85
2024-05-09T20:17:12.820Z,0.82
2024-05-09T20:19:14.590Z,0.95
2024-05-09T20:21:16.324Z,1.08
2024-05-09T20:23:17.920Z,0.90
2024-05-09T20:25:19.587Z,0.88
2024-05-09T20:27:21.163Z,0.95
2024-05-09T20:29:22.783Z,0.80
2024-05-09T20:31:24.604Z,0.80
2024-05-09T20:33:26.829Z,0.90
2024-05-09T20:35:31.709Z,1.30
2024-05-09T20:37:33.420Z,1.05
2024-05-09T20:39:35.167Z,1.00
2024-05-09T20:41:40.741Z,1.00
2024-05-09T20:43:42.425Z,0.90
2024-05-09T20:45:44.110Z,1.00
2024-05-09T20:47:45.907Z,0.90
2024-05-09T20:49:47.756Z,1.05
2024-05-09T20:51:49.674Z,1.08
2024-05-09T20:53:51.478Z,0.82
2024-05-09T20:55:53.107Z,1.10
2024-05-09T20:57:54.871Z,0.90
2024-05-09T20:59:56.681Z,1.10
2024-05-09T21:01:58.542Z,1.10
2024-05-09T21:04:00.495Z,0.90
2024-05-09T21:06:02.158Z,1.13
2024-05-09T21:08:03.815Z,0.90
2024-05-09T21:10:12.759Z,0.98
2024-05-09T21:12:17.979Z,0.98
2024-05-09T21:14:19.575Z,1.00
2024-05-09T21:16:21.321Z,0.98
2024-05-09T21:18:23.081Z,1.10
2024-05-09T21:20:30.939Z,1.17
2024-05-09T21:22:34.040Z,1.30
2024-05-09T21:24:36.308Z,1.00
2024-05-09T21:26:37.912Z,1.20
2024-05-09T21:28:39.498Z,1.10
2024-05-09T21:30:44.270Z,1.17
2024-05-09T21:32:46.171Z,1.10
2024-05-09T21:34:47.863Z,1.23
2024-05-09T21:36:49.566Z,1.30
2024-05-09T21:38:51.168Z,1.30
2024-05-09T21:40:53.848Z,1.25
2024-05-09T21:42:55.598Z,1.17
2024-05-09T21:44:57.273Z,1.38
2024-05-09T21:46:58.917Z,1.45
2024-05-09T21:49:00.556Z,1.42
2024-05-09T21:51:02.141Z,1.30
2024-05-09T21:53:03.857Z,1.48
2024-05-09T21:55:05.751Z,1.50
2024-05-09T21:57:09.030Z,1.58
2024-05-09T21:59:10.628Z,1.35
2024-05-09T22:01:12.312Z,1.40
2024-05-09T22:03:14.227Z,1.50
2024-05-09T22:05:16.114Z,1.58
2024-05-09T22:07:17.874Z,1.33
2024-05-09T22:09:19.844Z,1.35
2024-05-09T22:11:21.707Z,1.58
2024-05-09T22:13:23.875Z,1.25
2024-05-09T22:15:25.615Z,1.33
2024-05-09T22:17:27.482Z,1.40
2024-05-09T22:19:29.870Z,1.50
2024-05-09T22:21:31.544Z,1.30
2024-05-09T22:23:33.131Z,1.30
2024-05-09T22:25:34.889Z,1.30
2024-05-09T22:27:36.841Z,1.30
2024-05-09T22:29:39.018Z,1.50
2024-05-09T22:31:40.728Z,1.30
2024-05-09T22:33:45.520Z,1.23
2024-05-09T22:35:48.751Z,1.25
2024-05-09T22:37:50.339Z,1.20
2024-05-09T22:39:52.094Z,1.30
2024-05-09T22:41:53.847Z,1.10
2024-05-09T22:43:55.760Z,1.30
2024-05-09T22:45:57.318Z,1.40
2024-05-09T22:47:59.215Z,1.30
2024-05-09T22:50:00.919Z,1.23
2024-05-09T22:52:02.776Z,1.10
2024-05-09T22:54:04.971Z,1.10
2024-05-09T22:56:06.837Z,1.25
2024-05-09T22:58:08.482Z,1.10
2024-05-09T23:00:15.461Z,1.10
2024-05-09T23:02:17.561Z,1.10
2024-05-09T23:04:19.356Z,1.20
2024-05-09T23:06:21.013Z,1.20
2024-05-09T23:08:22.569Z,1.48
2024-05-09T23:10:32.108Z,1.10
2024-05-09T23:12:38.780Z,1.27
2024-05-09T23:14:40.380Z,1.02
2024-05-09T23:16:42.457Z,1.00
2024-05-09T23:18:44.180Z,1.05
2024-05-09T23:20:45.859Z,0.77
2024-05-09T23:22:47.561Z,1.00
2024-05-09T23:24:49.341Z,1.10
2024-05-09T23:26:50.981Z,0.98
2024-05-09T23:28:52.562Z,0.77
2024-05-09T23:30:54.225Z,1.10
2024-05-09T23:32:55.877Z,0.98
2024-05-09T23:34:57.617Z,1.10
2024-05-09T23:36:59.425Z,0.90
2024-05-09T23:39:01.280Z,0.90
2024-05-09T23:41:02.956Z,0.98
2024-05-09T23:43:04.786Z,0.90
2024-05-09T23:45:07.075Z,0.98
2024-05-09T23:47:10.719Z,0.90
2024-05-09T23:49:12.814Z,0.80
2024-05-09T23:51:14.536Z,0.80
2024-05-09T23:53:16.205Z,1.05
2024-05-09T23:55:18.142Z,0.90
2024-05-09T23:57:20.107Z,0.90
2024-05-09T23:59:21.701Z,1.08
